createdAt,value
2022-11-24T00:01:24.028Z,8.90
2022-11-24T00:04:00.031Z,10.00
2022-11-24T00:06:27.729Z,8.00
2022-11-24T00:11:25.426Z,8.80
2022-11-24T00:16:33.863Z,8.90
2022-11-24T00:19:02.554Z,8.60
2022-11-24T00:21:30.941Z,7.40
2022-11-24T00:26:37.289Z,8.60
2022-11-24T00:29:07.493Z,8.40
2022-11-24T00:31:36.800Z,8.20
2022-11-24T00:34:06.192Z,8.50
2022-11-24T00:36:34.805Z,8.40
2022-11-24T00:39:04.587Z,7.20
2022-11-24T00:41:31.758Z,9.70
2022-11-24T00:46:26.889Z,9.90
2022-11-24T00:48:54.024Z,8.60
2022-11-24T00:51:23.209Z,8.40
2022-11-24T01:01:17.985Z,8.30
2022-11-24T01:03:46.758Z,8.30
2022-11-24T01:06:17.713Z,8.20
2022-11-24T01:08:45.295Z,8.20
2022-11-24T01:11:21.332Z,8.20
2022-11-24T01:13:53.670Z,8.40
2022-11-24T01:16:34.618Z,8.20
2022-11-24T01:19:01.537Z,6.90
2022-11-24T01:26:23.319Z,8.20
2022-11-24T01:28:55.329Z,8.80
2022-11-24T01:31:22.704Z,8.70
2022-11-24T01:41:14.138Z,8.30
2022-11-24T01:43:42.773Z,8.40
2022-11-24T01:46:27.992Z,8.90
2022-11-24T01:49:12.039Z,8.40
2022-11-24T01:51:58.059Z,9.60
2022-11-24T01:54:36.107Z,8.60
2022-11-24T01:57:28.351Z,8.50
2022-11-24T02:00:04.648Z,8.60
2022-11-24T02:02:42.258Z,8.90
2022-11-24T02:05:20.439Z,8.70
2022-11-24T02:07:48.295Z,8.70
2022-11-24T02:10:16.271Z,8.70
2022-11-24T02:12:47.631Z,8.70
2022-11-24T02:15:18.785Z,9.70
2022-11-24T02:20:14.574Z,8.80
2022-11-24T02:23:00.976Z,8.80
2022-11-24T02:26:02.403Z,10.00
2022-11-24T02:28:30.815Z,8.90
2022-11-24T02:30:59.815Z,8.90
2022-11-24T02:33:27.072Z,9.00
2022-11-24T02:38:31.234Z,8.90
2022-11-24T02:41:02.125Z,8.90
2022-11-24T02:43:32.608Z,8.90
2022-11-24T02:45:59.494Z,8.70
2022-11-24T03:08:04.782Z,7.90
2022-11-24T03:15:25.894Z,8.00
2022-11-24T03:17:54.987Z,9.20
2022-11-24T03:27:43.333Z,8.30
2022-11-24T03:35:05.179Z,7.80
2022-11-24T03:37:31.969Z,9.00
2022-11-24T03:47:20.336Z,7.70
2022-11-24T03:57:10.481Z,10.10
2022-11-24T03:59:37.222Z,9.50
2022-11-24T04:04:31.578Z,8.60
2022-11-24T04:17:06.155Z,7.80
2022-11-24T04:26:54.537Z,8.80
2022-11-24T04:34:15.677Z,9.30
2022-11-24T04:54:11.818Z,8.90
2022-11-24T05:01:35.654Z,8.00
2022-11-24T05:13:53.296Z,8.80
2022-11-24T05:18:47.506Z,7.80
2022-11-24T05:26:09.493Z,8.70
2022-11-24T05:28:36.280Z,8.80
2022-11-24T05:31:04.581Z,8.70
2022-11-24T05:36:02.184Z,8.70
2022-11-24T05:41:06.415Z,9.20
2022-11-24T05:46:01.541Z,8.60
2022-11-24T05:48:28.439Z,7.50
2022-11-24T05:50:56.388Z,8.50
2022-11-24T05:53:23.868Z,10.80
2022-11-24T06:13:06.367Z,7.40
2022-11-24T06:15:34.223Z,8.40
2022-11-24T06:23:00.685Z,8.40
2022-11-24T06:25:28.554Z,8.40
2022-11-24T06:27:55.693Z,7.00
2022-11-24T06:35:17.453Z,8.60
2022-11-24T06:42:40.077Z,8.00
2022-11-24T06:50:05.025Z,8.30
2022-11-24T06:52:32.037Z,7.30
2022-11-24T06:57:29.485Z,8.10
2022-11-24T07:17:08.652Z,8.80
2022-11-24T07:39:13.263Z,8.40
2022-11-24T07:41:40.105Z,7.20
2022-11-24T07:46:34.167Z,8.20
2022-11-24T08:01:20.279Z,7.70
2022-11-24T08:06:26.069Z,8.40
2022-11-24T08:16:19.943Z,8.40
2022-11-24T08:18:54.729Z,8.60
2022-11-24T08:21:25.952Z,8.50
2022-11-24T08:23:57.136Z,7.50
2022-11-24T08:26:25.150Z,8.60
2022-11-24T08:28:57.763Z,8.70
2022-11-24T08:31:27.424Z,8.70
2022-11-24T08:33:56.033Z,8.70
2022-11-24T08:38:55.338Z,8.80
2022-11-24T08:46:18.750Z,9.00
2022-11-24T08:48:50.354Z,9.30
2022-11-24T08:51:20.948Z,9.20
2022-11-24T09:01:13.363Z,10.40
2022-11-24T09:06:18.415Z,9.50
2022-11-24T09:11:14.587Z,10.30
2022-11-24T09:16:11.981Z,10.10
2022-11-24T09:21:17.221Z,9.30
2022-11-24T09:23:45.387Z,10.70
2022-11-24T09:26:18.755Z,10.90
2022-11-24T09:31:15.714Z,11.20
2022-11-24T09:33:43.643Z,11.80
2022-11-24T09:41:33.537Z,12.00
2022-11-24T09:46:35.857Z,12.80
2022-11-24T09:49:08.044Z,13.00
2022-11-24T09:54:10.986Z,13.10
2022-11-24T09:56:40.589Z,13.60
2022-11-24T10:01:39.065Z,13.70
2022-11-24T10:04:19.735Z,13.90
2022-11-24T10:07:26.846Z,13.90
2022-11-24T10:10:16.534Z,15.20
2022-11-24T10:15:33.107Z,12.10
2022-11-24T10:20:45.636Z,13.30
2022-11-24T10:24:00.012Z,12.30
2022-11-24T10:26:38.565Z,14.60
2022-11-24T10:29:32.350Z,15.30
2022-11-24T10:32:03.839Z,15.80
2022-11-24T10:34:44.000Z,16.20
2022-11-24T10:40:32.920Z,15.10
2022-11-24T10:42:59.998Z,15.60
2022-11-24T10:45:28.355Z,17.10
2022-11-24T10:47:55.243Z,17.60
2022-11-24T10:53:10.152Z,16.30
2022-11-24T10:55:55.527Z,17.20
2022-11-24T10:58:37.629Z,16.70
2022-11-24T11:01:14.371Z,15.30
2022-11-24T11:03:56.342Z,16.10
2022-11-24T11:06:28.386Z,15.70
2022-11-24T11:09:20.468Z,16.40
2022-11-24T11:11:48.882Z,17.50
2022-11-24T11:14:35.495Z,18.50
2022-11-24T11:17:02.905Z,19.20
2022-11-24T11:19:49.381Z,19.50
2022-11-24T11:22:28.982Z,20.20
2022-11-24T11:25:07.930Z,19.40
2022-11-24T11:36:11.160Z,20.80
2022-11-24T11:38:40.200Z,20.20
2022-11-24T11:41:17.009Z,21.10
2022-11-24T11:43:45.821Z,20.10
2022-11-24T11:46:18.247Z,21.30
2022-11-24T11:48:47.223Z,21.60
2022-11-24T11:51:56.284Z,21.70
2022-11-24T11:54:39.793Z,22.50
2022-11-24T11:57:37.899Z,21.80
2022-11-24T12:02:56.811Z,22.80
2022-11-24T12:05:45.158Z,22.90
2022-11-24T12:09:03.314Z,22.80
2022-11-24T12:11:47.765Z,23.80
2022-11-24T12:14:31.267Z,22.70
2022-11-24T12:17:21.322Z,23.90
2022-11-24T12:20:18.980Z,23.60
2022-11-24T12:22:57.692Z,24.40
2022-11-24T12:25:39.566Z,25.60
2022-11-24T12:28:18.056Z,24.90
2022-11-24T12:30:56.609Z,24.80
2022-11-24T12:33:51.599Z,25.20
2022-11-24T12:36:38.725Z,26.20
2022-11-24T12:39:26.719Z,24.70
2022-11-24T12:42:17.753Z,25.40
2022-11-24T12:44:56.592Z,23.80
2022-11-24T12:47:47.902Z,22.60
2022-11-24T12:50:24.711Z,23.70
2022-11-24T12:53:00.705Z,24.80
2022-11-24T12:55:30.195Z,25.40
2022-11-24T12:58:11.083Z,26.20
2022-11-24T13:01:12.987Z,24.70
2022-11-24T13:04:10.757Z,23.90
2022-11-24T13:06:49.903Z,24.50
2022-11-24T13:14:13.971Z,24.80
2022-11-24T13:19:49.371Z,24.10
2022-11-24T13:22:24.260Z,24.00
2022-11-24T13:25:20.914Z,23.90
2022-11-24T13:27:59.630Z,23.50
2022-11-24T13:30:35.651Z,23.20
2022-11-24T13:33:16.175Z,22.80
2022-11-24T13:36:02.215Z,22.90
2022-11-24T13:38:51.488Z,22.90
2022-11-24T13:41:33.293Z,22.20
2022-11-24T13:44:15.648Z,22.50
2022-11-24T13:47:06.191Z,22.40
2022-11-24T13:49:46.375Z,21.10
2022-11-24T13:52:47.326Z,21.20
2022-11-24T13:57:56.160Z,21.30
2022-11-24T14:00:27.533Z,21.50
2022-11-24T14:03:01.586Z,20.80
2022-11-24T14:05:37.775Z,19.90
2022-11-24T14:08:07.726Z,18.40
2022-11-24T14:10:37.504Z,18.50
2022-11-24T14:13:20.785Z,17.30
2022-11-24T14:16:05.585Z,17.70
2022-11-24T14:18:34.561Z,17.10
2022-11-24T14:21:20.581Z,16.80
2022-11-24T14:23:55.261Z,16.50
2022-11-24T14:26:26.697Z,16.30
2022-11-24T14:28:54.199Z,16.70
2022-11-24T14:31:25.905Z,15.60
2022-11-24T14:34:15.973Z,15.30
2022-11-24T14:36:42.984Z,15.00
2022-11-24T14:39:15.145Z,14.90
2022-11-24T14:41:52.764Z,14.80
2022-11-24T14:44:25.942Z,14.50
2022-11-24T14:47:03.749Z,15.00
2022-11-24T14:49:33.095Z,14.20
2022-11-24T14:52:03.260Z,14.10
2022-11-24T14:54:31.240Z,15.30
2022-11-24T14:57:04.828Z,15.00
2022-11-24T14:59:38.060Z,13.60
2022-11-24T15:02:38.472Z,13.40
2022-11-24T15:07:40.988Z,13.30
2022-11-24T15:10:20.160Z,12.40
2022-11-24T15:12:58.481Z,12.80
2022-11-24T15:15:49.487Z,12.60
2022-11-24T15:18:32.418Z,12.90
2022-11-24T15:25:55.440Z,12.60
2022-11-24T15:28:26.705Z,12.40
2022-11-24T15:30:54.925Z,12.60
2022-11-24T15:33:23.213Z,12.30
2022-11-24T15:38:18.247Z,13.30
2022-11-24T15:40:47.148Z,12.00
2022-11-24T15:43:23.178Z,11.90
2022-11-24T15:50:47.000Z,11.60
2022-11-24T15:53:29.284Z,11.50
2022-11-24T15:55:57.134Z,11.40
2022-11-24T16:06:17.934Z,11.00
2022-11-24T16:33:30.436Z,9.40
2022-11-24T16:40:53.552Z,10.40
2022-11-24T16:46:08.734Z,10.20
2022-11-24T16:48:38.421Z,10.20
2022-11-24T16:51:07.194Z,10.30
2022-11-24T16:53:34.177Z,9.10
2022-11-24T16:56:01.128Z,9.30
2022-11-24T16:58:28.089Z,9.80
2022-11-24T17:05:59.521Z,10.00
2022-11-24T17:08:26.532Z,9.10
2022-11-24T17:20:52.746Z,10.20
2022-11-24T17:35:37.327Z,10.00
2022-11-24T17:38:04.544Z,9.80
2022-11-24T17:43:01.758Z,9.70
2022-11-24T17:45:30.427Z,9.90
2022-11-24T17:47:59.743Z,9.80
2022-11-24T17:52:54.275Z,9.80
2022-11-24T18:17:29.146Z,10.90
2022-11-24T18:30:06.116Z,9.10
2022-11-24T18:37:30.544Z,9.50
2022-11-24T18:42:25.904Z,8.20
2022-11-24T18:47:21.278Z,10.10
2022-11-24T18:49:48.305Z,8.80
2022-11-24T18:57:09.526Z,8.10
2022-11-24T19:02:03.756Z,9.40
2022-11-24T19:26:39.499Z,9.00
2022-11-24T19:29:07.349Z,9.10
2022-11-24T19:31:35.292Z,7.90
2022-11-24T19:38:58.763Z,10.40
2022-11-24T19:41:28.779Z,9.00
2022-11-24T19:46:27.529Z,9.00
2022-11-24T19:48:56.956Z,9.10
2022-11-24T19:51:27.945Z,8.50
2022-11-24T19:53:54.813Z,8.10
2022-11-24T19:56:23.964Z,8.20
2022-11-24T20:01:23.188Z,8.70
2022-11-24T20:04:00.923Z,8.70
2022-11-24T20:06:30.768Z,8.50
2022-11-24T20:09:00.342Z,8.90
2022-11-24T20:16:29.561Z,8.90
2022-11-24T20:19:01.975Z,8.50
2022-11-24T20:21:31.446Z,8.90
2022-11-24T20:24:07.403Z,8.90
2022-11-24T20:26:40.578Z,8.90
2022-11-24T20:29:10.008Z,7.40
2022-11-24T20:31:39.916Z,7.80
2022-11-24T20:34:07.883Z,8.80
2022-11-24T20:36:37.927Z,8.80
2022-11-24T20:39:08.599Z,8.90
2022-11-24T20:41:37.635Z,7.60
2022-11-24T20:44:10.497Z,9.90
2022-11-24T20:46:39.026Z,9.00
2022-11-24T20:49:08.517Z,9.00
2022-11-24T20:51:39.726Z,9.10
2022-11-24T20:54:08.781Z,9.10
2022-11-24T20:56:39.607Z,8.60
2022-11-24T20:59:14.164Z,9.10
2022-11-24T21:01:43.825Z,7.80
2022-11-24T21:04:13.378Z,9.10
2022-11-24T21:06:40.604Z,8.20
2022-11-24T21:09:08.513Z,9.30
2022-11-24T21:11:36.644Z,9.10
2022-11-24T21:16:33.661Z,10.00
2022-11-24T21:19:03.231Z,9.10
2022-11-24T21:21:34.424Z,10.00
2022-11-24T21:24:11.207Z,10.50
2022-11-24T21:29:06.833Z,9.10
2022-11-24T21:31:38.315Z,9.30
2022-11-24T21:36:34.977Z,9.90
2022-11-24T21:41:32.706Z,9.10
2022-11-24T21:43:59.610Z,9.90
2022-11-24T21:48:54.336Z,8.80
2022-11-24T21:56:21.271Z,9.10
2022-11-24T21:58:50.628Z,9.20
2022-11-24T22:01:19.380Z,9.10
2022-11-24T22:03:46.503Z,10.20
2022-11-24T22:08:40.617Z,8.00
2022-11-24T22:11:12.501Z,7.40
2022-11-24T22:16:09.318Z,10.50
2022-11-24T22:18:39.493Z,9.30
2022-11-24T22:21:08.189Z,9.30
2022-11-24T22:23:36.305Z,9.30
2022-11-24T22:26:05.780Z,9.30
2022-11-24T22:28:36.783Z,9.30
2022-11-24T22:31:08.249Z,9.30
2022-11-24T22:38:30.615Z,9.40
2022-11-24T22:41:12.294Z,9.40
2022-11-24T22:43:40.500Z,8.40
2022-11-24T22:46:11.046Z,9.40
2022-11-24T22:51:08.594Z,10.80
2022-11-24T22:53:35.406Z,10.70
2022-11-24T22:56:10.537Z,9.40
2022-11-24T22:58:38.782Z,9.30
2022-11-24T23:03:36.863Z,9.40
2022-11-24T23:06:15.146Z,9.30
2022-11-24T23:08:42.812Z,9.40
2022-11-24T23:11:13.319Z,9.40
2022-11-24T23:16:10.444Z,9.50
2022-11-24T23:21:06.111Z,9.40
2022-11-24T23:26:05.453Z,9.40
2022-11-24T23:31:08.193Z,10.60
2022-11-24T23:36:09.059Z,9.50
2022-11-24T23:38:36.240Z,10.20
2022-11-24T23:41:05.432Z,10.20
2022-11-24T23:43:36.227Z,9.40
2022-11-24T23:46:26.318Z,10.80
2022-11-24T23:48:54.337Z,8.40
2022-11-24T23:51:26.895Z,10.80
2022-11-24T23:53:54.551Z,9.40
2022-11-24T23:56:26.862Z,10.20
